createdAt,value
2022-10-13T00:00:56.825Z,102055.44
2022-10-13T00:03:23.716Z,102058.03
2022-10-13T00:05:51.552Z,102058.03
2022-10-13T00:08:21.356Z,102060.09
2022-10-13T00:10:51.056Z,102049.44
2022-10-13T00:13:19.427Z,102043.97
2022-10-13T00:15:47.382Z,102039.56
2022-10-13T00:18:15.717Z,102038.50
2022-10-13T00:20:45.604Z,102042.16
2022-10-13T00:23:14.033Z,102046.09
2022-10-13T00:25:46.242Z,102045.59
2022-10-13T00:28:14.709Z,102039.34
2022-10-13T00:30:42.235Z,102034.91
2022-10-13T00:33:10.426Z,102032.06
2022-10-13T00:35:42.762Z,102040.44
2022-10-13T00:38:09.934Z,102034.19
2022-10-13T00:40:48.279Z,102038.59
2022-10-13T00:43:49.203Z,102034.97
2022-10-13T00:46:16.175Z,102036.81
2022-10-13T00:48:44.707Z,102033.69
2022-10-13T00:51:15.464Z,102043.09
2022-10-13T00:53:43.011Z,102036.06
2022-10-13T00:56:12.773Z,102023.25
2022-10-13T00:58:40.481Z,102030.59
2022-10-13T01:01:08.343Z,102030.31
2022-10-13T01:03:36.378Z,102031.13
2022-10-13T01:06:05.554Z,102036.34
2022-10-13T01:08:33.497Z,102032.69
2022-10-13T01:11:24.429Z,102033.00
2022-10-13T01:14:00.053Z,102029.88
2022-10-13T01:16:45.541Z,102025.19
2022-10-13T01:19:51.178Z,102029.94
2022-10-13T01:22:45.935Z,102028.63
2022-10-13T01:25:45.328Z,102024.78
2022-10-13T01:28:41.427Z,102025.53
2022-10-13T01:31:17.212Z,102026.63
2022-10-13T01:33:52.983Z,102019.56
2022-10-13T01:36:33.283Z,102018.78
2022-10-13T01:39:08.024Z,102027.41
2022-10-13T01:41:40.953Z,102026.38
2022-10-13T01:44:18.013Z,102025.34
2022-10-13T01:46:47.179Z,102020.88
2022-10-13T01:49:18.889Z,102015.44
2022-10-13T01:51:47.584Z,102018.56
2022-10-13T01:54:14.761Z,102018.34
2022-10-13T01:56:41.661Z,102021.47
2022-10-13T01:59:14.737Z,102012.59
2022-10-13T02:02:17.406Z,102012.91
2022-10-13T02:04:59.274Z,102004.28
2022-10-13T02:07:38.025Z,102011.63
2022-10-13T02:10:14.892Z,102005.34
2022-10-13T02:12:59.691Z,101991.53
2022-10-13T02:15:33.193Z,101952.63
2022-10-13T02:18:02.158Z,101973.50
2022-10-13T02:20:30.590Z,101972.47
2022-10-13T02:23:02.815Z,101987.88
2022-10-13T02:25:31.049Z,101973.00
2022-10-13T02:28:00.538Z,101980.56
2022-10-13T02:30:31.244Z,101978.50
2022-10-13T02:32:58.185Z,101975.88
2022-10-13T02:35:25.245Z,101978.50
2022-10-13T02:37:52.228Z,101981.91
2022-10-13T02:40:19.053Z,101980.38
2022-10-13T02:42:45.907Z,101971.47
2022-10-13T02:45:13.007Z,101966.78
2022-10-13T02:47:39.871Z,101969.41
2022-10-13T02:50:07.601Z,101963.94
2022-10-13T02:52:34.472Z,101959.25
2022-10-13T02:55:01.379Z,101951.66
2022-10-13T02:57:28.302Z,101943.34
2022-10-13T02:59:55.175Z,101927.16
2022-10-13T03:02:22.289Z,101907.28
2022-10-13T03:04:49.859Z,101914.34
2022-10-13T03:07:16.689Z,101926.63
2022-10-13T03:09:43.595Z,101926.13
2022-10-13T03:12:10.559Z,101936.56
2022-10-13T03:14:37.598Z,101936.06
2022-10-13T03:17:04.478Z,101943.63
2022-10-13T03:19:32.188Z,101948.88
2022-10-13T03:21:59.023Z,101958.00
2022-10-13T03:24:25.974Z,101953.59
2022-10-13T03:26:52.832Z,101952.28
2022-10-13T03:29:20.040Z,101951.75
2022-10-13T03:31:46.978Z,101944.47
2022-10-13T03:34:16.726Z,101944.22
2022-10-13T03:36:43.694Z,101942.38
2022-10-13T03:39:10.570Z,101929.84
2022-10-13T03:41:37.545Z,101918.38
2022-10-13T03:44:04.640Z,101917.84
2022-10-13T03:46:31.920Z,101917.59
2022-10-13T03:48:58.816Z,101914.19
2022-10-13T03:51:25.984Z,101907.41
2022-10-13T03:53:53.992Z,101897.97
2022-10-13T03:56:24.141Z,101905.81
2022-10-13T03:59:01.275Z,101908.44
2022-10-13T04:01:30.402Z,101909.47
2022-10-13T04:03:58.807Z,101907.66
2022-10-13T04:06:26.634Z,101906.63
2022-10-13T04:08:54.110Z,101905.81
2022-10-13T04:11:21.846Z,101891.72
2022-10-13T04:13:48.703Z,101901.13
2022-10-13T04:16:18.737Z,101898.50
2022-10-13T04:18:50.181Z,101899.56
2022-10-13T04:21:17.050Z,101896.97
2022-10-13T04:23:43.910Z,101884.19
2022-10-13T04:26:22.488Z,101882.09
2022-10-13T04:28:50.748Z,101866.41
2022-10-13T04:31:18.148Z,101868.78
2022-10-13T04:33:45.995Z,101875.59
2022-10-13T04:36:14.308Z,101866.69
2022-10-13T04:38:42.793Z,101876.16
2022-10-13T04:41:10.544Z,101872.47
2022-10-13T04:43:37.484Z,101873.53
2022-10-13T04:46:10.691Z,101874.31
2022-10-13T04:48:37.757Z,101880.31
2022-10-13T04:51:08.023Z,101891.81
2022-10-13T04:53:34.986Z,101890.19
2022-10-13T04:56:03.958Z,101891.00
2022-10-13T04:58:31.313Z,101892.81
2022-10-13T05:00:58.589Z,101897.03
2022-10-13T05:03:26.165Z,101898.34
2022-10-13T05:05:53.626Z,101899.13
2022-10-13T05:08:21.398Z,101891.28
2022-10-13T05:10:59.174Z,101885.81
2022-10-13T05:13:27.288Z,101892.59
2022-10-13T05:15:54.175Z,101896.78
2022-10-13T05:18:21.184Z,101894.19
2022-10-13T05:20:48.072Z,101886.34
2022-10-13T05:23:15.822Z,101892.34
2022-10-13T05:25:43.150Z,101896.00
2022-10-13T05:28:10.144Z,101894.69
2022-10-13T05:30:37.007Z,101893.41
2022-10-13T05:33:03.947Z,101897.06
2022-10-13T05:35:31.141Z,101888.69
2022-10-13T05:37:58.003Z,101889.22
2022-10-13T05:40:25.031Z,101884.53
2022-10-13T05:42:52.847Z,101881.66
2022-10-13T05:45:21.811Z,101880.88
2022-10-13T05:47:48.660Z,101878.78
2022-10-13T05:50:15.672Z,101879.31
2022-10-13T05:52:43.376Z,101882.72
2022-10-13T05:55:13.693Z,101886.63
2022-10-13T05:57:44.319Z,101876.97
2022-10-13T06:00:17.225Z,101872.00
2022-10-13T06:02:53.685Z,101868.34
2022-10-13T06:05:24.107Z,101863.13
2022-10-13T06:07:51.266Z,101872.28
2022-10-13T06:10:18.908Z,101868.34
2022-10-13T06:12:45.950Z,101869.94
2022-10-13T06:15:12.976Z,101860.78
2022-10-13T06:17:40.200Z,101855.03
2022-10-13T06:20:08.883Z,101838.03
2022-10-13T06:22:37.088Z,101832.81
2022-10-13T06:25:06.023Z,101833.06
2022-10-13T06:27:33.446Z,101837.25
2022-10-13T06:30:00.465Z,101843.28
2022-10-13T06:32:27.573Z,101847.44
2022-10-13T06:34:55.117Z,101846.41
2022-10-13T06:37:26.934Z,101836.75
2022-10-13T06:39:54.643Z,101836.47
2022-10-13T06:42:22.076Z,101829.16
2022-10-13T06:44:49.563Z,101830.72
2022-10-13T06:47:16.518Z,101844.31
2022-10-13T06:49:43.521Z,101846.66
2022-10-13T06:52:10.565Z,101858.69
2022-10-13T06:54:37.553Z,101867.03
2022-10-13T06:57:06.591Z,101871.00
2022-10-13T06:59:33.758Z,101880.13
2022-10-13T07:02:00.692Z,101874.66
2022-10-13T07:04:28.516Z,101871.50
2022-10-13T07:06:55.676Z,101866.78
2022-10-13T07:09:22.885Z,101856.84
2022-10-13T07:11:50.535Z,101864.19
2022-10-13T07:14:17.543Z,101860.25
2022-10-13T07:16:44.640Z,101855.28
2022-10-13T07:19:11.586Z,101866.00
2022-10-13T07:21:38.689Z,101863.91
2022-10-13T07:24:06.126Z,101863.38
2022-10-13T07:26:34.204Z,101862.03
2022-10-13T07:29:02.258Z,101855.78
2022-10-13T07:31:29.625Z,101848.16
2022-10-13T07:33:59.825Z,101848.94
2022-10-13T07:36:27.781Z,101846.56
2022-10-13T07:38:54.877Z,101849.44
2022-10-13T07:41:21.906Z,101847.88
2022-10-13T07:43:48.903Z,101857.53
2022-10-13T07:46:16.001Z,101855.16
2022-10-13T07:48:43.153Z,101856.72
2022-10-13T07:51:12.190Z,101861.41
2022-10-13T07:53:40.365Z,101851.69
2022-10-13T07:56:10.766Z,101857.72
2022-10-13T07:58:39.123Z,101857.72
2022-10-13T08:01:07.078Z,101860.81
2022-10-13T08:03:34.267Z,101858.19
2022-10-13T08:06:02.937Z,101856.88
2022-10-13T08:08:30.576Z,101852.13
2022-10-13T08:11:10.671Z,101860.25
2022-10-13T08:13:39.131Z,101858.66
2022-10-13T08:16:06.295Z,101848.13
2022-10-13T08:18:33.480Z,101841.28
2022-10-13T08:23:50.581Z,101833.47
2022-10-13T08:26:23.631Z,101836.75
2022-10-13T08:29:09.594Z,101841.34
2022-10-13T08:31:38.630Z,101850.63
2022-10-13T08:34:05.791Z,101844.44
2022-10-13T08:36:32.836Z,101842.31
2022-10-13T08:38:59.897Z,101846.44
2022-10-13T08:41:28.623Z,101846.94
2022-10-13T08:47:32.995Z,101846.59
2022-10-13T08:50:04.071Z,101857.59
2022-10-13T08:52:48.681Z,101862.56
2022-10-13T08:55:33.606Z,101856.06
2022-10-13T08:58:02.695Z,101846.09
2022-10-13T09:00:30.875Z,101844.25
2022-10-13T09:03:30.582Z,101837.66
2022-10-13T09:06:11.761Z,101840.72
2022-10-13T09:08:44.355Z,101837.75
2022-10-13T09:11:13.084Z,101845.34
2022-10-13T09:13:40.766Z,101839.09
2022-10-13T09:16:08.169Z,101836.97
2022-10-13T09:18:35.837Z,101843.72
2022-10-13T09:21:25.510Z,101848.47
2022-10-13T09:23:54.317Z,101842.72
2022-10-13T09:26:25.528Z,101836.97
2022-10-13T09:28:53.073Z,101839.09
2022-10-13T09:31:30.502Z,101823.13
2022-10-13T09:34:15.764Z,101832.84
2022-10-13T09:37:01.909Z,101826.56
2022-10-13T09:39:30.107Z,101828.09
2022-10-13T09:42:20.029Z,101833.00
2022-10-13T09:44:48.960Z,101830.59
2022-10-13T09:47:25.563Z,101833.19
2022-10-13T09:50:18.845Z,101832.06
2022-10-13T09:52:47.936Z,101836.16
2022-10-13T09:55:32.864Z,101826.81
2022-10-13T09:58:14.865Z,101833.72
2022-10-13T10:00:42.270Z,101840.47
2022-10-13T10:03:26.313Z,101822.78
2022-10-13T10:05:59.894Z,101832.06
2022-10-13T10:08:58.103Z,101822.81
2022-10-13T10:11:45.655Z,101824.16
2022-10-13T10:14:18.678Z,101824.09
2022-10-13T10:16:54.257Z,101825.06
2022-10-13T10:19:49.694Z,101823.69
2022-10-13T10:22:34.847Z,101814.97
2022-10-13T10:25:10.863Z,101810.59
2022-10-13T10:27:44.106Z,101817.81
2022-10-13T10:30:19.692Z,101812.88
2022-10-13T10:33:13.647Z,101807.03
2022-10-13T10:35:52.611Z,101809.25
2022-10-13T10:38:53.337Z,101804.13
2022-10-13T10:41:46.723Z,101812.31
2022-10-13T10:44:48.260Z,101801.44
2022-10-13T10:47:30.600Z,101806.22
2022-10-13T10:50:03.810Z,101804.06
2022-10-13T10:52:53.734Z,101806.31
2022-10-13T10:55:33.264Z,101802.88
2022-10-13T10:58:22.618Z,101798.41
2022-10-13T11:01:16.857Z,101799.47
2022-10-13T11:03:55.355Z,101788.47
2022-10-13T11:06:24.639Z,101796.56
2022-10-13T11:08:51.594Z,101796.66
2022-10-13T11:11:29.412Z,101786.59
2022-10-13T11:14:01.929Z,101789.22
2022-10-13T11:16:59.897Z,101796.84
2022-10-13T11:19:33.634Z,101783.56
2022-10-13T11:22:00.297Z,101778.09
2022-10-13T11:24:42.351Z,101776.50
2022-10-13T11:27:11.935Z,101780.00
2022-10-13T11:30:00.064Z,101790.63
2022-10-13T11:32:27.345Z,101791.16
2022-10-13T11:35:21.693Z,101786.41
2022-10-13T11:38:06.881Z,101781.66
2022-10-13T11:41:03.203Z,101783.97
2022-10-13T11:43:53.745Z,101769.91
2022-10-13T11:46:20.971Z,101776.84
2022-10-13T11:49:08.974Z,101775.22
2022-10-13T11:52:12.580Z,101774.53
2022-10-13T11:54:54.542Z,101766.16
2022-10-13T11:57:24.549Z,101762.53
2022-10-13T11:59:55.920Z,101765.88
2022-10-13T12:02:26.098Z,101761.31
2022-10-13T12:05:07.737Z,101758.38
2022-10-13T12:07:39.693Z,101754.38
2022-10-13T12:10:15.278Z,101750.28
2022-10-13T12:12:50.027Z,101756.03
2022-10-13T12:15:35.493Z,101752.34
2022-10-13T12:18:19.759Z,101754.50
2022-10-13T12:20:56.418Z,101760.03
2022-10-13T12:23:24.183Z,101756.81
2022-10-13T12:25:57.758Z,101756.59
2022-10-13T12:28:31.121Z,101747.09
2022-10-13T12:31:00.087Z,101752.84
2022-10-13T12:33:38.041Z,101755.47
2022-10-13T12:36:17.853Z,101744.72
2022-10-13T12:38:50.766Z,101737.22
2022-10-13T12:41:36.448Z,101733.72
2022-10-13T12:44:06.733Z,101743.16
2022-10-13T12:46:49.481Z,101744.34
2022-10-13T12:49:16.381Z,101737.03
2022-10-13T12:51:46.851Z,101736.06
2022-10-13T12:54:18.609Z,101741.91
2022-10-13T12:56:45.933Z,101732.44
2022-10-13T12:59:18.366Z,101738.78
2022-10-13T13:01:46.450Z,101744.63
2022-10-13T13:04:18.150Z,101737.81
2022-10-13T13:07:03.065Z,101742.66
2022-10-13T13:09:41.364Z,101743.34
2022-10-13T13:12:11.079Z,101739.84
2022-10-13T13:14:39.287Z,101737.34
2022-10-13T13:17:17.518Z,101728.50
2022-10-13T13:19:55.889Z,101736.66
2022-10-13T13:22:23.014Z,101740.06
2022-10-13T13:24:51.880Z,101736.94
2022-10-13T13:27:32.369Z,101736.44
2022-10-13T13:29:59.346Z,101736.16
2022-10-13T13:32:27.989Z,101731.41
2022-10-13T13:34:55.458Z,101721.16
2022-10-13T13:37:35.698Z,101728.19
2022-10-13T13:40:02.872Z,101730.25
2022-10-13T13:42:30.420Z,101728.50
2022-10-13T13:44:57.564Z,101722.06
2022-10-13T13:47:27.002Z,101718.78
2022-10-13T13:49:57.745Z,101702.34
2022-10-13T13:52:25.791Z,101709.91
2022-10-13T13:54:53.445Z,101705.47
2022-10-13T13:57:20.962Z,101715.78
2022-10-13T13:59:48.114Z,101714.13
2022-10-13T14:02:18.523Z,101708.38
2022-10-13T14:04:46.577Z,101707.88
2022-10-13T14:07:14.114Z,101704.84
2022-10-13T14:09:41.779Z,101695.09
2022-10-13T14:12:09.191Z,101694.31
2022-10-13T14:14:36.124Z,101699.09
2022-10-13T14:17:05.137Z,101696.47
2022-10-13T14:19:32.936Z,101687.19
2022-10-13T14:22:04.729Z,101678.13
2022-10-13T14:24:34.473Z,101690.44
2022-10-13T14:27:01.340Z,101689.03
2022-10-13T14:29:28.379Z,101685.16
2022-10-13T14:31:55.391Z,101688.66
2022-10-13T14:34:22.479Z,101687.19
2022-10-13T14:36:49.512Z,101683.13
2022-10-13T14:39:16.453Z,101677.38
2022-10-13T14:41:43.601Z,101676.59
2022-10-13T14:44:12.712Z,101676.59
2022-10-13T14:46:40.662Z,101673.97
2022-10-13T14:49:07.657Z,101669.75
2022-10-13T14:51:34.632Z,101661.56
2022-10-13T14:54:02.907Z,101665.59
2022-10-13T14:56:30.978Z,101661.69
2022-10-13T14:58:59.633Z,101661.59
2022-10-13T15:01:26.909Z,101663.25
2022-10-13T15:03:54.133Z,101660.44
2022-10-13T15:06:24.593Z,101671.63
2022-10-13T15:08:52.063Z,101659.63
2022-10-13T15:11:21.597Z,101666.56
2022-10-13T15:13:48.657Z,101667.41
2022-10-13T15:16:24.284Z,101659.50
2022-10-13T15:18:51.307Z,101660.69
2022-10-13T15:21:18.993Z,101653.97
2022-10-13T15:23:46.463Z,101652.88
2022-10-13T15:26:15.943Z,101657.28
2022-10-13T15:28:46.095Z,101651.75
2022-10-13T15:31:13.406Z,101659.44
2022-10-13T15:33:46.592Z,101653.69
2022-10-13T15:36:14.210Z,101655.50
2022-10-13T15:38:41.180Z,101651.41
2022-10-13T15:41:08.584Z,101652.78
2022-10-13T15:43:35.728Z,101660.19
2022-10-13T15:46:05.634Z,101649.44
2022-10-13T15:48:33.614Z,101642.06
2022-10-13T15:51:01.169Z,101647.81
2022-10-13T15:53:30.211Z,101641.50
2022-10-13T15:55:57.105Z,101641.50
2022-10-13T15:58:23.990Z,101646.75
2022-10-13T16:00:50.937Z,101651.72
2022-10-13T16:03:18.767Z,101642.06
2022-10-13T16:05:46.815Z,101635.25
2022-10-13T16:08:14.857Z,101637.38
2022-10-13T16:10:43.218Z,101634.84
2022-10-13T16:13:14.002Z,101645.94
2022-10-13T16:15:41.877Z,101649.13
2022-10-13T16:18:08.807Z,101641.84
2022-10-13T16:20:38.038Z,101638.25
2022-10-13T16:23:05.601Z,101630.44
2022-10-13T16:25:32.508Z,101628.41
2022-10-13T16:28:00.998Z,101629.72
2022-10-13T16:30:30.590Z,101625.84
2022-10-13T16:32:58.233Z,101629.03
2022-10-13T16:35:27.054Z,101622.78
2022-10-13T16:37:53.909Z,101626.78
2022-10-13T16:40:20.807Z,101625.50
2022-10-13T16:42:48.280Z,101631.81
2022-10-13T16:45:15.552Z,101634.75
2022-10-13T16:47:42.645Z,101631.63
2022-10-13T16:50:10.200Z,101643.47
2022-10-13T16:52:37.940Z,101640.34
2022-10-13T16:55:06.359Z,101636.75
2022-10-13T16:57:33.423Z,101636.75
2022-10-13T17:00:00.368Z,101643.63
2022-10-13T17:02:27.208Z,101644.72
2022-10-13T17:04:54.397Z,101641.09
2022-10-13T17:07:21.549Z,101635.84
2022-10-13T17:09:48.568Z,101647.69
2022-10-13T17:12:15.519Z,101644.78
2022-10-13T17:14:42.381Z,101647.69
2022-10-13T17:17:09.346Z,101661.31
2022-10-13T17:19:36.267Z,101653.75
2022-10-13T17:22:03.102Z,101662.94
2022-10-13T17:24:30.291Z,101662.94
2022-10-13T17:26:57.347Z,101669.28
2022-10-13T17:29:24.427Z,101664.56
2022-10-13T17:31:51.350Z,101670.31
2022-10-13T17:34:18.307Z,101666.94
2022-10-13T17:36:45.342Z,101668.00
2022-10-13T17:39:12.236Z,101670.13
2022-10-13T17:41:39.517Z,101670.69
2022-10-13T17:44:06.592Z,101667.28
2022-10-13T17:46:38.480Z,101668.66
2022-10-13T17:49:08.179Z,101679.16
2022-10-13T17:51:35.459Z,101685.16
2022-10-13T17:54:02.208Z,101672.31
2022-10-13T17:56:29.324Z,101676.31
2022-10-13T17:58:57.030Z,101681.81
2022-10-13T18:01:30.069Z,101683.97
2022-10-13T18:03:59.766Z,101682.38
2022-10-13T18:06:37.995Z,101689.75
2022-10-13T18:09:11.215Z,101680.34
2022-10-13T18:11:39.490Z,101682.97
2022-10-13T18:14:07.153Z,101686.63
2022-10-13T18:16:35.233Z,101699.75
2022-10-13T18:19:02.926Z,101691.88
2022-10-13T18:21:29.871Z,101698.72
2022-10-13T18:23:59.455Z,101704.28
2022-10-13T18:26:29.126Z,101707.47
2022-10-13T18:28:57.374Z,101707.53
2022-10-13T18:31:27.801Z,101702.06
2022-10-13T18:33:56.354Z,101717.31
2022-10-13T18:36:26.231Z,101721.75
2022-10-13T18:38:55.308Z,101722.59
2022-10-13T18:41:24.656Z,101735.22
2022-10-13T18:43:51.978Z,101727.34
2022-10-13T18:46:19.432Z,101738.41
2022-10-13T18:48:46.552Z,101742.66
2022-10-13T18:51:15.617Z,101736.09
2022-10-13T18:53:47.119Z,101738.22
2022-10-13T18:56:26.392Z,101745.31
2022-10-13T18:58:59.334Z,101753.47
2022-10-13T19:01:29.131Z,101756.38
2022-10-13T19:03:56.714Z,101756.66
2022-10-13T19:06:27.221Z,101764.78
2022-10-13T19:09:00.872Z,101761.66
2022-10-13T19:11:29.412Z,101753.56
2022-10-13T19:13:57.629Z,101753.06
2022-10-13T19:16:26.496Z,101753.84
2022-10-13T19:18:53.548Z,101749.69
2022-10-13T19:21:21.423Z,101753.13
2022-10-13T19:23:49.216Z,101751.59
2022-10-13T19:26:19.852Z,101753.72
2022-10-13T19:28:47.577Z,101756.63
2022-10-13T19:31:17.588Z,101752.41
2022-10-13T19:33:47.310Z,101768.97
2022-10-13T19:36:32.693Z,101754.59
2022-10-13T19:39:00.265Z,101754.34
2022-10-13T19:41:29.626Z,101754.69
2022-10-13T19:43:56.594Z,101749.75
2022-10-13T19:46:23.677Z,101757.91
2022-10-13T19:48:50.803Z,101756.41
2022-10-13T19:51:18.608Z,101762.22
2022-10-13T19:53:45.643Z,101769.59
2022-10-13T19:56:31.749Z,101762.31
2022-10-13T19:58:59.158Z,101759.22
2022-10-13T20:01:26.445Z,101754.78
2022-10-13T20:03:53.535Z,101763.44
2022-10-13T20:06:21.200Z,101761.91
2022-10-13T20:08:48.873Z,101763.28
2022-10-13T20:11:23.328Z,101767.75
2022-10-13T20:13:51.057Z,101766.97
2022-10-13T20:16:20.578Z,101766.22
2022-10-13T20:18:52.675Z,101765.75
2022-10-13T20:21:19.607Z,101773.09
2022-10-13T20:23:46.856Z,101773.09
2022-10-13T20:26:14.373Z,101779.38
2022-10-13T20:28:43.727Z,101776.78
2022-10-13T20:31:12.990Z,101789.34
2022-10-13T20:33:40.602Z,101786.75
2022-10-13T20:36:11.957Z,101777.59
2022-10-13T20:38:39.058Z,101779.47
2022-10-13T20:41:06.465Z,101784.41
2022-10-13T20:43:34.531Z,101781.31
2022-10-13T20:46:07.353Z,101781.56
2022-10-13T20:49:05.276Z,101791.50
2022-10-13T20:51:23.943Z,101790.44
2022-10-13T20:53:50.903Z,101787.34
2022-10-13T20:56:21.396Z,101789.69
2022-10-13T20:58:48.412Z,101791.50
2022-10-13T21:01:16.845Z,101789.13
2022-10-13T21:03:43.812Z,101785.75
2022-10-13T21:06:13.440Z,101792.03
2022-10-13T21:08:40.724Z,101799.06
2022-10-13T21:11:11.127Z,101803.00
2022-10-13T21:13:39.718Z,101803.53
2022-10-13T21:16:12.894Z,101803.00
2022-10-13T21:18:40.164Z,101805.34
2022-10-13T21:21:10.070Z,101802.50
2022-10-13T21:23:37.722Z,101812.13
2022-10-13T21:26:06.477Z,101809.28
2022-10-13T21:28:36.540Z,101812.13
2022-10-13T21:31:08.856Z,101811.63
2022-10-13T21:33:37.984Z,101803.78
2022-10-13T21:36:14.633Z,101805.09
2022-10-13T21:38:42.722Z,101797.25
2022-10-13T21:41:11.652Z,101795.16
2022-10-13T21:43:38.879Z,101782.34
2022-10-13T21:46:17.423Z,101788.38
2022-10-13T21:48:46.013Z,101786.56
2022-10-13T21:51:20.498Z,101777.91
2022-10-13T21:53:55.186Z,101782.34
2022-10-13T21:56:22.738Z,101787.59
2022-10-13T21:58:49.844Z,101786.81
2022-10-13T22:01:17.851Z,101780.00
2022-10-13T22:03:47.248Z,101776.88
2022-10-13T22:06:19.171Z,101773.47
2022-10-13T22:08:48.912Z,101773.72
2022-10-13T22:11:17.246Z,101774.78
2022-10-13T22:13:44.492Z,101780.78
2022-10-13T22:16:17.147Z,101764.84
2022-10-13T22:18:44.173Z,101767.47
2022-10-13T22:21:16.101Z,101765.88
2022-10-13T22:23:43.810Z,101767.72
2022-10-13T22:26:11.057Z,101757.78
2022-10-13T22:28:39.081Z,101757.00
2022-10-13T22:31:07.897Z,101754.41
2022-10-13T22:33:36.382Z,101753.38
2022-10-13T22:36:11.540Z,101750.47
2022-10-13T22:38:38.549Z,101756.47
2022-10-13T22:41:07.007Z,101759.63
2022-10-13T22:43:34.849Z,101755.44
2022-10-13T22:46:04.571Z,101760.69
2022-10-13T22:48:36.940Z,101758.31
2022-10-13T22:51:07.413Z,101755.44
2022-10-13T22:53:34.613Z,101750.22
2022-10-13T22:56:06.016Z,101750.22
2022-10-13T22:58:33.193Z,101752.31
2022-10-13T23:01:14.731Z,101744.72
2022-10-13T23:03:41.856Z,101754.41
2022-10-13T23:06:14.127Z,101746.56
2022-10-13T23:08:41.773Z,101746.81
2022-10-13T23:11:09.243Z,101738.47
2022-10-13T23:13:36.715Z,101739.50
2022-10-13T23:16:25.550Z,101737.91
2022-10-13T23:18:52.737Z,101737.13
2022-10-13T23:21:22.119Z,101728.25
2022-10-13T23:23:54.990Z,101736.06
2022-10-13T23:26:21.928Z,101732.94
2022-10-13T23:28:48.796Z,101729.03
2022-10-13T23:31:17.709Z,101728.25
2022-10-13T23:33:45.379Z,101728.25
2022-10-13T23:36:24.328Z,101718.84
2022-10-13T23:38:56.341Z,101714.13
2022-10-13T23:41:23.622Z,101720.13
2022-10-13T23:43:50.687Z,101729.81
2022-10-13T23:46:17.610Z,101736.56
2022-10-13T23:48:44.697Z,101714.13
2022-10-13T23:51:14.778Z,101715.44
2022-10-13T23:53:42.379Z,101726.66
2022-10-13T23:56:11.125Z,101732.41
2022-10-13T23:58:40.159Z,101724.31
